Mountain Green, Utah
Current Conditions -  °F | °C
As of 12:58 PM on Thursday 23 Oct 2014 (Local Time) from KHIF Reporting Station
Scattered Clouds Scattered Clouds  
Wind Chill: 65°   Ceiling: Unl
Heat Index: 65°   Visibility: 10mi
Dew Point: 32°   Wind: 5mph
Humidity: 28%   Direction: NA
Pressure: 30.15"   Gusts: NA
Location:  41.0884°N, 111.576°W
Report Text: KHIF 231858Z AUTO VRB04KT 10SM SCT150 19/00 A3015 RMK AO2 SLP176 T01861001
Loading
Personal Weather Stations






























Interactive Weather Map
Tropical Storm Tracking
New forecast layout! Learn more

10-Day Weather Forecast

Advertisements
Track Severe Weather on mobile